EPSC/SZZ METAR and TAF weather

Enter ICAO airport designator
Station Type Date Time Source
EPSC METAR 2022/06/25 23:00 UTC NOAA

EPSC 252300Z VRB02KT CAVOK 21/18 Q1013


Station Type Date Time Source
EPSC Decoded METAR 2022/06/25 23:00 UTC NOAA

Szczecin, Poland (EPSC) 53-24N 014-37E 3M
Jun 25, 2022 - 07:00 PM EDT / 2022.06.25 2300 UTC
Wind: Variable at 2 MPH (2 KT):0
Visibility: greater than 7 mile(s):0
Temperature: 69 F (21 C)
Dew Point: 64 F (18 C)
Relative Humidity: 82%
Pressure (altimeter): 29.91 in. Hg (1013 hPa)
ob: EPSC 252300Z VRB02KT CAVOK 21/18 Q1013
cycle: 23

Station Type Date Time Source
EPSC TAF 2022/06/25 20:39 UTC NOAA

TAF
AMD TAF
AMD EPSC 252034Z 2520/2618 VRB04KT CAVOK
TEMPO 2520/2522 -SHRA SCT045CB

Example: see airport list